Time;durP1;ratioP1;P1;durP2;ratioP2;P2;SDS_P1;SDS_P2;PMS_P1;PMS_P2;Temp;Humidity;BMP_temperature;BMP_pressure;BME280_temperature;BME280_humidity;BME280_pressure;Samples;Min_cycle;Max_cycle;Signal;HPM_P1;HPM_P2
2022/01/05 00:02:13;;;;;;;;;;;6.50;99.90;;;;;;5088123;28;20285;-81
2022/01/05 00:04:39;;;;;;;;;;;6.40;99.90;;;;;;5072736;28;20355;-80
2022/01/05 00:07:06;;;;;;;;;;;6.30;99.90;;;;;;5068990;28;20011;-79
2022/01/05 00:09:31;;;;;;;;;;;6.40;99.90;;;;;;5072607;28;20436;-80
2022/01/05 00:11:57;;;;;;;;;;;6.30;99.90;;;;;;5071137;28;19916;-79
2022/01/05 00:14:23;;;;;;;;;;;6.30;99.90;;;;;;5072494;28;19908;-81
2022/01/05 00:16:48;;;;;;;;;;;6.40;99.90;;;;;;5070989;28;19916;-80
2022/01/05 00:19:14;;;;;;;;;;;6.50;99.90;;;;;;5071139;28;19912;-81
2022/01/05 00:21:40;;;;;;;;;;;6.40;99.90;;;;;;5062088;28;19916;-77
2022/01/05 00:24:08;;;;;;;;;;;6.40;99.90;;;;;;5072176;28;19909;-80
2022/01/05 00:26:34;;;;;;;;;;;6.30;99.90;;;;;;5054390;28;20295;-81
2022/01/05 00:28:59;;;;;;;;;;;6.30;99.90;;;;;;5072188;28;19922;-79
2022/01/05 00:31:25;;;;;;;;;;;6.30;99.90;;;;;;5090440;28;19947;-77
2022/01/05 00:33:51;;;;;;;;;;;6.40;99.90;;;;;;5076402;28;19908;-81
2022/01/05 00:36:17;;;;;;;;;;;6.40;99.90;;;;;;5076224;28;19936;-80
2022/01/05 00:38:42;;;;;;;;;;;6.50;99.90;;;;;;5076171;28;19908;-80
2022/01/05 00:41:08;;;;;;;;;;;6.50;99.90;;;;;;5058313;28;19915;-80
2022/01/05 00:43:34;;;;;;;;;;;6.50;99.90;;;;;;5058076;28;19914;-80
2022/01/05 00:46:00;;;;;;;;;;;6.40;99.90;;;;;;5058078;28;20002;-80
2022/01/05 00:48:25;;;;;;;;;;;6.30;99.90;;;;;;5076220;28;19966;-79
2022/01/05 00:50:51;;;;;;;;;;;6.30;99.90;;;;;;5075944;28;19916;-79
2022/01/05 00:53:17;;;;;;;;;;;6.30;99.90;;;;;;5075558;28;20011;-80
2022/01/05 00:55:42;;;;;;;;;;;6.40;99.90;;;;;;5076114;28;20390;-79
2022/01/05 00:58:08;;;;;;;;;;;6.50;99.90;;;;;;5075983;28;19916;-79
2022/01/05 01:00:34;;;;;;;;;;;6.40;99.90;;;;;;5075949;28;20003;-80
2022/01/05 01:02:59;;;;;;;;;;;6.40;99.90;;;;;;5058385;28;19916;-79
2022/01/05 01:05:25;;;;;;;;;;;6.50;99.90;;;;;;5075951;28;19994;-80
2022/01/05 01:07:50;;;;;;;;;;;6.40;99.90;;;;;;5057676;28;19965;-80
2022/01/05 01:10:16;;;;;;;;;;;6.40;99.90;;;;;;5057355;28;20295;-77
2022/01/05 01:12:42;;;;;;;;;;;6.40;99.90;;;;;;5075801;28;19919;-77
2022/01/05 01:15:09;;;;;;;;;;;6.30;99.90;;;;;;5091291;28;19942;-79
2022/01/05 01:17:34;;;;;;;;;;;6.20;99.90;;;;;;5075475;28;19912;-78
2022/01/05 01:20:00;;;;;;;;;;;6.20;99.90;;;;;;5075382;28;19908;-78
2022/01/05 01:22:29;;;;;;;;;;;6.20;99.90;;;;;;5075472;28;19912;-77
2022/01/05 01:24:54;;;;;;;;;;;6.20;99.90;;;;;;5075453;28;19995;-80
2022/01/05 01:27:20;;;;;;;;;;;6.30;99.90;;;;;;5090585;28;20118;-79
2022/01/05 01:29:46;;;;;;;;;;;6.30;99.90;;;;;;5075071;28;19912;-80
2022/01/05 01:32:11;;;;;;;;;;;6.30;99.90;;;;;;5057033;28;19924;-80
2022/01/05 01:34:37;;;;;;;;;;;6.20;99.90;;;;;;5075089;28;19912;-78
2022/01/05 01:37:03;;;;;;;;;;;6.10;99.90;;;;;;5075167;28;19999;-80
2022/01/05 01:39:28;;;;;;;;;;;6.00;99.90;;;;;;5075315;28;19993;-79
2022/01/05 01:41:54;;;;;;;;;;;6.10;99.90;;;;;;5090456;28;19908;-80
2022/01/05 01:44:19;;;;;;;;;;;5.90;99.90;;;;;;5074918;28;19919;-79
2022/01/05 01:46:45;;;;;;;;;;;5.90;99.90;;;;;;5074956;28;20359;-79
2022/01/05 01:49:11;;;;;;;;;;;5.90;99.90;;;;;;5074984;28;20360;-78
2022/01/05 01:51:36;;;;;;;;;;;5.90;99.90;;;;;;5074713;28;19920;-79
2022/01/05 01:54:03;;;;;;;;;;;5.90;99.90;;;;;;5074880;28;19915;-79
2022/01/05 01:56:31;;;;;;;;;;;5.90;99.90;;;;;;5090239;28;19908;-78
2022/01/05 01:58:57;;;;;;;;;;;5.90;99.90;;;;;;5074559;28;20316;-78
2022/01/05 02:01:22;;;;;;;;;;;5.80;99.90;;;;;;5074674;28;19959;-78
2022/01/05 02:03:48;;;;;;;;;;;5.70;99.90;;;;;;5074340;28;19916;-78
2022/01/05 02:06:14;;;;;;;;;;;5.80;99.90;;;;;;5074487;28;19915;-78
2022/01/05 02:08:40;;;;;;;;;;;5.60;99.90;;;;;;5074733;28;19948;-79
2022/01/05 02:11:07;;;;;;;;;;;5.70;99.90;;;;;;5074123;28;19916;-78
2022/01/05 02:13:33;;;;;;;;;;;5.60;99.90;;;;;;5073239;28;19999;-79
2022/01/05 02:15:58;;;;;;;;;;;5.60;99.90;;;;;;5074454;28;19991;-78
2022/01/05 02:20:57;;;;;;;;;;;5.40;99.90;;;;;;5071518;28;19912;-79
2022/01/05 02:23:23;;;;;;;;;;;5.40;99.90;;;;;;5071473;28;19966;-77
2022/01/05 02:25:48;;;;;;;;;;;5.50;99.90;;;;;;5054961;28;19912;-78
2022/01/05 02:28:14;;;;;;;;;;;5.30;99.90;;;;;;5073645;28;19920;-78
2022/01/05 02:30:42;;;;;;;;;;;5.40;99.90;;;;;;5089529;28;19919;-78
2022/01/05 02:33:07;;;;;;;;;;;5.60;99.90;;;;;;5073772;28;19908;-79
2022/01/05 02:35:33;;;;;;;;;;;5.50;99.90;;;;;;5089446;28;19961;-79
2022/01/05 02:37:59;;;;;;;;;;;5.50;99.90;;;;;;5074106;28;19912;-78
2022/01/05 02:40:25;;;;;;;;;;;5.50;99.90;;;;;;5074070;28;19908;-78
2022/01/05 02:42:55;;;;;;;;;;;5.50;99.90;;;;;;5073815;28;20015;-78
2022/01/05 02:45:21;;;;;;;;;;;5.60;99.90;;;;;;5073546;28;19908;-77
2022/01/05 02:47:48;;;;;;;;;;;5.50;99.90;;;;;;5073796;28;19916;-78
2022/01/05 02:50:14;;;;;;;;;;;5.60;99.90;;;;;;5055938;28;19922;-78
2022/01/05 02:52:40;;;;;;;;;;;5.60;99.90;;;;;;5055496;28;20007;-77
2022/01/05 02:55:06;;;;;;;;;;;5.60;99.90;;;;;;5073405;28;19940;-78
2022/01/05 02:57:31;;;;;;;;;;;5.40;99.90;;;;;;5073545;28;19944;-77
2022/01/05 02:59:57;;;;;;;;;;;5.40;99.90;;;;;;5089085;28;20414;-78
2022/01/05 03:02:23;;;;;;;;;;;5.60;99.90;;;;;;5073458;28;20007;-78
2022/01/05 03:04:49;;;;;;;;;;;5.40;99.90;;;;;;5055698;28;19999;-78
2022/01/05 03:07:16;;;;;;;;;;;5.40;99.90;;;;;;5073368;28;19912;-77
2022/01/05 03:09:42;;;;;;;;;;;5.40;99.90;;;;;;5088319;28;19908;-78
2022/01/05 03:12:08;;;;;;;;;;;5.40;99.90;;;;;;5055386;28;19912;-77
2022/01/05 03:14:33;;;;;;;;;;;5.40;99.90;;;;;;5055174;28;19940;-78
2022/01/05 03:16:59;;;;;;;;;;;5.20;99.90;;;;;;5073044;28;19969;-78
2022/01/05 03:19:25;;;;;;;;;;;5.00;99.90;;;;;;5054935;28;19943;-77
2022/01/05 03:21:50;;;;;;;;;;;5.00;99.90;;;;;;5073041;28;19912;-78
2022/01/05 03:24:16;;;;;;;;;;;5.00;99.90;;;;;;5073174;28;19908;-78
2022/01/05 03:26:41;;;;;;;;;;;4.90;99.90;;;;;;5073045;28;19916;-77
2022/01/05 03:29:07;;;;;;;;;;;5.00;99.90;;;;;;5073051;28;19916;-77
2022/01/05 03:31:33;;;;;;;;;;;5.00;99.90;;;;;;5073016;28;19916;-78
2022/01/05 03:33:58;;;;;;;;;;;4.90;99.90;;;;;;5073143;28;20355;-78
2022/01/05 03:36:24;;;;;;;;;;;4.90;99.90;;;;;;5073020;28;19986;-78
2022/01/05 03:38:50;;;;;;;;;;;5.00;99.90;;;;;;5072187;28;19908;-77
2022/01/05 03:41:16;;;;;;;;;;;;;;;;;;5072504;28;19923;-78
2022/01/05 03:43:41;;;;;;;;;;;5.00;99.90;;;;;;5072630;28;19918;-78
2022/01/05 03:46:07;;;;;;;;;;;5.00;99.90;;;;;;5088109;28;19912;-77
2022/01/05 03:48:33;;;;;;;;;;;4.90;99.90;;;;;;5072720;28;19912;-77
2022/01/05 03:50:58;;;;;;;;;;;4.80;99.90;;;;;;5088138;28;19952;-78
2022/01/05 03:53:24;;;;;;;;;;;4.70;99.90;;;;;;5072618;28;19908;-78
2022/01/05 03:55:49;;;;;;;;;;;4.70;99.90;;;;;;5072655;28;20398;-78
2022/01/05 03:58:15;;;;;;;;;;;4.80;99.90;;;;;;5054722;28;19920;-78
2022/01/05 04:00:43;;;;;;;;;;;4.80;99.90;;;;;;5072575;28;19918;-77
2022/01/05 04:03:08;;;;;;;;;;;4.80;99.90;;;;;;5072798;28;19908;-78
2022/01/05 04:05:34;;;;;;;;;;;4.70;99.90;;;;;;5072423;28;19915;-77
2022/01/05 04:08:00;;;;;;;;;;;4.70;99.90;;;;;;5072191;28;19952;-78
2022/01/05 04:10:25;;;;;;;;;;;4.70;99.90;;;;;;5072324;28;19969;-77
2022/01/05 04:12:51;;;;;;;;;;;4.70;99.90;;;;;;5072513;28;19908;-78
2022/01/05 04:15:17;;;;;;;;;;;4.70;99.90;;;;;;5071098;28;19916;-78
2022/01/05 04:17:43;;;;;;;;;;;4.70;99.90;;;;;;5072074;28;19962;-78
2022/01/05 04:20:10;;;;;;;;;;;4.60;99.90;;;;;;5072576;28;19915;-77
2022/01/05 04:22:35;;;;;;;;;;;4.70;99.90;;;;;;5072513;28;19912;-77
2022/01/05 04:25:01;;;;;;;;;;;4.70;99.90;;;;;;5054611;28;19935;-78
2022/01/05 04:27:27;;;;;;;;;;;4.60;99.90;;;;;;5072380;28;19912;-77
2022/01/05 04:29:52;;;;;;;;;;;4.40;99.90;;;;;;5072309;28;19989;-77
2022/01/05 04:32:18;;;;;;;;;;;4.40;99.90;;;;;;5053879;28;19978;-78
2022/01/05 04:34:44;;;;;;;;;;;4.40;99.90;;;;;;5054266;28;20486;-77
2022/01/05 04:37:09;;;;;;;;;;;4.40;99.90;;;;;;5053920;28;19916;-78
2022/01/05 04:39:35;;;;;;;;;;;4.30;99.90;;;;;;5072187;28;20287;-77
2022/01/05 04:42:02;;;;;;;;;;;4.10;99.90;;;;;;5072108;28;20268;-77
2022/01/05 04:44:27;;;;;;;;;;;4.10;99.90;;;;;;5072292;28;19908;-78
2022/01/05 04:46:53;;;;;;;;;;;3.80;99.90;;;;;;5072077;28;19920;-78
2022/01/05 04:49:18;;;;;;;;;;;3.80;99.90;;;;;;5071477;28;19979;-77
2022/01/05 04:51:44;;;;;;;;;;;4.00;99.90;;;;;;5072031;28;19917;-77
2022/01/05 04:54:10;;;;;;;;;;;3.90;99.90;;;;;;5072310;28;20283;-78
2022/01/05 04:56:35;;;;;;;;;;;3.60;99.90;;;;;;5087719;28;19912;-77
2022/01/05 04:59:01;;;;;;;;;;;3.70;99.90;;;;;;5071721;28;19948;-78
2022/01/05 05:01:27;;;;;;;;;;;3.80;99.90;;;;;;5087362;28;19919;-78
2022/01/05 05:03:52;;;;;;;;;;;3.60;99.90;;;;;;5054066;28;19958;-76
2022/01/05 05:06:18;;;;;;;;;;;3.60;99.90;;;;;;5072006;28;19947;-78
2022/01/05 05:08:43;;;;;;;;;;;3.50;99.90;;;;;;5072172;28;19919;-78
2022/01/05 05:11:09;;;;;;;;;;;3.40;99.90;;;;;;5071996;28;19944;-77
2022/01/05 05:13:34;;;;;;;;;;;3.50;99.90;;;;;;5072123;28;19908;-79
2022/01/05 05:16:01;;;;;;;;;;;3.50;99.90;;;;;;5072209;28;20670;-78
2022/01/05 05:18:27;;;;;;;;;;;3.60;99.90;;;;;;5075148;28;20359;-77
2022/01/05 05:20:53;;;;;;;;;;;3.50;99.90;;;;;;5075276;28;19953;-78
2022/01/05 05:23:18;;;;;;;;;;;3.60;99.90;;;;;;5057507;28;19908;-77
2022/01/05 05:25:44;;;;;;;;;;;3.70;99.90;;;;;;5090867;28;19920;-76
2022/01/05 05:28:10;;;;;;;;;;;3.70;99.90;;;;;;5057345;28;20374;-79
2022/01/05 05:30:36;;;;;;;;;;;3.70;99.90;;;;;;5075320;28;19916;-78
2022/01/05 05:33:02;;;;;;;;;;;3.60;99.90;;;;;;5075404;28;20363;-78
2022/01/05 05:35:28;;;;;;;;;;;3.70;99.90;;;;;;5075278;28;19915;-79
2022/01/05 05:37:54;;;;;;;;;;;3.70;99.90;;;;;;5090850;28;19908;-78
2022/01/05 05:40:20;;;;;;;;;;;3.80;99.90;;;;;;5075219;28;19915;-78
2022/01/05 05:42:45;;;;;;;;;;;3.70;99.90;;;;;;5049661;28;19951;-77
2022/01/05 05:45:11;;;;;;;;;;;3.80;99.90;;;;;;5054358;28;19915;-78
2022/01/05 05:47:37;;;;;;;;;;;3.80;99.90;;;;;;5075019;28;19908;-78
2022/01/05 05:50:02;;;;;;;;;;;3.70;99.90;;;;;;5073476;28;19962;-78
2022/01/05 05:52:28;;;;;;;;;;;3.50;99.90;;;;;;5056538;28;19912;-78
2022/01/05 05:54:54;;;;;;;;;;;3.60;99.90;;;;;;5090632;28;19908;-78
2022/01/05 05:57:19;;;;;;;;;;;3.50;99.90;;;;;;5056779;28;20019;-79
2022/01/05 05:59:45;;;;;;;;;;;3.50;99.90;;;;;;5057005;28;19950;-78
2022/01/05 06:02:11;;;;;;;;;;;3.20;99.90;;;;;;5074829;28;20451;-77
2022/01/05 06:04:36;;;;;;;;;;;3.10;99.90;;;;;;5074449;28;19912;-77
2022/01/05 06:07:02;;;;;;;;;;;3.10;99.90;;;;;;5074345;28;20283;-77
2022/01/05 06:09:28;;;;;;;;;;;3.20;99.90;;;;;;5074488;28;19916;-77
2022/01/05 06:11:53;;;;;;;;;;;3.10;99.90;;;;;;5074603;28;19970;-77
2022/01/05 06:14:19;;;;;;;;;;;3.10;99.90;;;;;;5074339;28;20402;-77
2022/01/05 06:16:44;;;;;;;;;;;2.90;99.90;;;;;;5074899;28;19912;-79
2022/01/05 06:19:10;;;;;;;;;;;2.80;99.90;;;;;;5106789;28;20271;-77
2022/01/05 06:21:36;;;;;;;;;;;3.10;99.90;;;;;;5073802;28;19908;-76
2022/01/05 06:24:02;;;;;;;;;;;3.10;99.90;;;;;;5053318;28;19936;-77
2022/01/05 06:26:27;;;;;;;;;;;2.90;99.90;;;;;;5072662;28;20414;-77
2022/01/05 06:28:53;;;;;;;;;;;3.00;99.90;;;;;;5073764;28;20001;-78
2022/01/05 06:31:18;;;;;;;;;;;3.10;99.90;;;;;;5054819;28;19917;-77
2022/01/05 06:33:44;;;;;;;;;;;2.80;99.90;;;;;;5055120;28;20380;-78
2022/01/05 06:36:10;;;;;;;;;;;2.70;99.90;;;;;;5056220;28;19916;-78
2022/01/05 06:38:35;;;;;;;;;;;2.80;99.90;;;;;;5074029;28;20378;-79
2022/01/05 06:41:01;;;;;;;;;;;2.90;99.90;;;;;;5074874;28;19991;-78
2022/01/05 06:43:27;;;;;;;;;;;2.60;99.90;;;;;;5074861;28;19914;-79
2022/01/05 06:45:52;;;;;;;;;;;2.80;99.90;;;;;;5074884;28;20367;-77
2022/01/05 06:48:18;;;;;;;;;;;2.50;99.90;;;;;;5074762;28;19914;-77
2022/01/05 06:50:43;;;;;;;;;;;2.40;99.90;;;;;;5043149;28;20364;-79
2022/01/05 06:53:09;;;;;;;;;;;2.30;99.90;;;;;;5086836;28;19943;-79
2022/01/05 06:55:35;;;;;;;;;;;2.40;99.90;;;;;;5053101;28;20362;-79
2022/01/05 06:58:00;;;;;;;;;;;2.40;99.90;;;;;;5086245;28;19913;-76
2022/01/05 07:00:27;;;;;;;;;;;2.80;99.90;;;;;;5071765;28;19916;-78
2022/01/05 07:02:53;;;;;;;;;;;2.40;99.90;;;;;;5072121;28;19951;-78
2022/01/05 07:05:19;;;;;;;;;;;2.30;99.90;;;;;;5071573;28;19962;-77
2022/01/05 07:07:44;;;;;;;;;;;2.20;99.90;;;;;;5071239;28;19904;-77
2022/01/05 07:10:11;;;;;;;;;;;2.20;99.90;;;;;;5070924;28;19913;-78
2022/01/05 07:12:37;;;;;;;;;;;2.10;99.90;;;;;;5068367;28;19915;-79
2022/01/05 07:15:03;;;;;;;;;;;2.10;99.90;;;;;;5071090;28;19909;-79
2022/01/05 07:17:28;;;;;;;;;;;2.20;99.90;;;;;;5069385;28;20040;-80
2022/01/05 07:19:54;;;;;;;;;;;2.20;99.90;;;;;;5062563;28;20429;-77
2022/01/05 07:22:20;;;;;;;;;;;2.10;99.90;;;;;;5052752;28;20053;-82
2022/01/05 07:24:45;;;;;;;;;;;2.10;99.90;;;;;;5053480;28;20480;-81
2022/01/05 07:27:11;;;;;;;;;;;2.10;99.90;;;;;;5064197;28;19913;-80
2022/01/05 07:29:37;;;;;;;;;;;2.00;99.90;;;;;;5062370;28;19912;-81
2022/01/05 07:32:03;;;;;;;;;;;1.90;99.90;;;;;;5073964;28;19969;-80
2022/01/05 07:34:28;;;;;;;;;;;1.90;99.90;;;;;;5089709;28;20359;-82
2022/01/05 07:36:54;;;;;;;;;;;1.90;99.90;;;;;;5089583;28;19919;-81
2022/01/05 07:39:20;;;;;;;;;;;2.00;99.90;;;;;;5072676;28;19955;-77
2022/01/05 07:41:45;;;;;;;;;;;2.00;99.90;;;;;;5055880;28;19908;-80
2022/01/05 07:44:11;;;;;;;;;;;1.90;99.90;;;;;;5089185;28;19912;-80
2022/01/05 07:46:36;;;;;;;;;;;1.80;99.90;;;;;;5073441;28;19948;-80
2022/01/05 07:49:03;;;;;;;;;;;1.80;99.90;;;;;;5073684;28;19908;-80
2022/01/05 07:51:29;;;;;;;;;;;1.80;99.90;;;;;;5073657;28;19916;-80
2022/01/05 07:53:55;;;;;;;;;;;1.70;99.90;;;;;;5072776;28;19908;-80
2022/01/05 07:56:20;;;;;;;;;;;1.70;99.90;;;;;;5073378;28;20278;-77
2022/01/05 07:58:47;;;;;;;;;;;1.80;99.90;;;;;;5073544;28;20253;-80
2022/01/05 08:01:15;;;;;;;;;;;1.90;99.90;;;;;;5073694;28;19908;-81
2022/01/05 08:03:40;;;;;;;;;;;1.90;99.90;;;;;;5073634;28;19970;-79
2022/01/05 08:06:06;;;;;;;;;;;1.70;99.90;;;;;;5073652;28;19916;-81
2022/01/05 08:08:32;;;;;;;;;;;2.00;99.90;;;;;;5059431;28;19952;-79
2022/01/05 08:10:57;;;;;;;;;;;2.00;99.90;;;;;;5073498;28;19916;-80
2022/01/05 08:13:24;;;;;;;;;;;2.00;99.90;;;;;;5073019;28;19916;-82
2022/01/05 08:15:50;;;;;;;;;;;2.10;99.90;;;;;;5055296;28;20378;-78
2022/01/05 08:18:16;;;;;;;;;;;2.50;99.90;;;;;;5073283;28;19912;-83
2022/01/05 08:20:42;;;;;;;;;;;2.30;99.90;;;;;;5088876;28;19916;-82
2022/01/05 08:23:07;;;;;;;;;;;1.90;99.90;;;;;;5073361;28;19962;-83
2022/01/05 08:25:33;;;;;;;;;;;1.80;99.90;;;;;;5055323;28;19909;-84
2022/01/05 08:27:58;;;;;;;;;;;1.80;99.90;;;;;;5055726;28;19915;-87
2022/01/05 08:30:25;;;;;;;;;;;1.90;99.90;;;;;;5073819;28;20298;-85
2022/01/05 08:32:53;;;;;;;;;;;2.00;99.90;;;;;;5073480;28;19974;-82
2022/01/05 08:35:20;;;;;;;;;;;1.90;99.90;;;;;;5073067;28;19908;-84
2022/01/05 08:37:47;;;;;;;;;;;2.00;99.90;;;;;;5073147;28;19913;-84
2022/01/05 08:40:14;;;;;;;;;;;1.80;99.90;;;;;;5055151;28;20341;-84
2022/01/05 08:42:40;;;;;;;;;;;1.90;99.90;;;;;;5088789;28;20334;-84
2022/01/05 08:45:06;;;;;;;;;;;1.90;99.90;;;;;;5073265;28;20022;-86
2022/01/05 08:47:31;;;;;;;;;;;1.80;99.90;;;;;;5073098;28;19908;-78
2022/01/05 08:49:57;;;;;;;;;;;2.00;99.90;;;;;;5071887;28;20003;-77
2022/01/05 08:52:22;;;;;;;;;;;1.90;99.90;;;;;;5073947;28;19916;-78
2022/01/05 08:54:48;;;;;;;;;;;2.00;99.90;;;;;;5059120;28;20333;-78
2022/01/05 08:57:14;;;;;;;;;;;2.00;99.90;;;;;;5058982;28;19954;-78
2022/01/05 08:59:40;;;;;;;;;;;2.20;99.90;;;;;;5075699;28;19923;-78
2022/01/05 09:02:06;;;;;;;;;;;2.00;99.90;;;;;;5058180;28;19916;-79
2022/01/05 09:04:32;;;;;;;;;;;2.00;99.90;;;;;;5076815;28;19908;-80
2022/01/05 09:06:59;;;;;;;;;;;1.90;99.90;;;;;;5058791;28;19913;-78
2022/01/05 09:09:25;;;;;;;;;;;1.70;99.90;;;;;;5058860;28;19908;-78
2022/01/05 09:11:51;;;;;;;;;;;1.90;99.90;;;;;;5076715;28;20386;-77
2022/01/05 09:14:17;;;;;;;;;;;1.90;99.90;;;;;;5076617;28;19916;-79
2022/01/05 09:16:43;;;;;;;;;;;1.90;99.90;;;;;;5091605;28;19919;-78
2022/01/05 09:19:08;;;;;;;;;;;2.50;99.90;;;;;;5076479;28;19986;-75
2022/01/05 09:21:34;;;;;;;;;;;2.20;99.90;;;;;;5076577;28;19908;-75
2022/01/05 09:24:00;;;;;;;;;;;2.50;99.90;;;;;;5069976;28;19917;-76
2022/01/05 09:26:25;;;;;;;;;;;2.30;99.90;;;;;;5072267;28;19916;-74
2022/01/05 09:28:51;;;;;;;;;;;2.50;99.90;;;;;;5073165;28;19908;-75
2022/01/05 09:31:17;;;;;;;;;;;2.50;99.90;;;;;;5073791;28;19916;-76
2022/01/05 09:33:42;;;;;;;;;;;2.60;99.90;;;;;;5073664;28;20278;-75
2022/01/05 09:36:15;;;;;;;;;;;2.20;99.90;;;;;;5054926;28;19962;-77
2022/01/05 09:43:56;;;;;;;;;;;1.90;99.90;;;;;;5072285;28;20069;-75
2022/01/05 09:46:22;;;;;;;;;;;;;;;;;;5074171;28;19954;-76
2022/01/05 09:49:07;;;;;;;;;;;2.60;99.90;;;;;;5072402;28;19912;-77
2022/01/05 09:51:33;;;;;;;;;;;2.80;99.90;;;;;;5072419;28;19916;-75
2022/01/05 09:54:00;;;;;;;;;;;2.40;99.90;;;;;;5072944;28;19914;-75
2022/01/05 09:56:26;;;;;;;;;;;2.30;99.90;;;;;;5054366;28;19908;-74
2022/01/05 09:58:52;;;;;;;;;;;2.50;99.90;;;;;;5074130;28;19958;-78
2022/01/05 10:01:18;;;;;;;;;;;2.60;99.90;;;;;;5072711;28;19909;-76
2022/01/05 10:03:44;;;;;;;;;;;2.50;99.90;;;;;;5072936;28;20377;-76
2022/01/05 10:06:11;;;;;;;;;;;2.80;99.90;;;;;;5072807;28;20317;-77
2022/01/05 10:08:37;;;;;;;;;;;2.90;99.90;;;;;;5070925;28;19916;-78
2022/01/05 10:11:02;;;;;;;;;;;2.50;99.90;;;;;;5070755;28;19912;-79
2022/01/05 10:13:28;;;;;;;;;;;2.60;99.90;;;;;;5075866;28;19916;-78
2022/01/05 10:15:54;;;;;;;;;;;2.90;99.90;;;;;;5055273;28;19909;-79
2022/01/05 10:18:22;;;;;;;;;;;2.60;99.90;;;;;;5069939;28;19916;-79
2022/01/05 10:20:57;;;;;;;;;;;2.50;99.90;;;;;;5052960;28;19909;-79
2022/01/05 10:23:37;;;;;;;;;;;2.30;99.90;;;;;;5054331;28;19954;-79
2022/01/05 10:26:21;;;;;;;;;;;2.20;99.90;;;;;;5037290;28;19908;-78
2022/01/05 10:28:47;;;;;;;;;;;2.70;99.90;;;;;;5061711;28;19927;-78
2022/01/05 10:31:18;;;;;;;;;;;2.70;99.90;;;;;;5055045;28;19942;-79
2022/01/05 10:33:43;;;;;;;;;;;2.70;99.90;;;;;;5054817;28;19908;-79
2022/01/05 10:36:09;;;;;;;;;;;2.90;99.90;;;;;;5072821;28;19915;-79
2022/01/05 10:38:35;;;;;;;;;;;3.10;99.90;;;;;;5072545;28;19908;-79
2022/01/05 10:41:16;;;;;;;;;;;3.10;99.90;;;;;;5071774;28;19939;-78
2022/01/05 10:44:00;;;;;;;;;;;3.10;99.90;;;;;;5052941;28;19914;-78
2022/01/05 10:46:33;;;;;;;;;;;3.40;99.90;;;;;;5051395;28;19915;-78
2022/01/05 10:48:59;;;;;;;;;;;2.80;99.90;;;;;;5052884;28;19961;-79
2022/01/05 10:51:31;;;;;;;;;;;3.00;99.90;;;;;;5053002;28;19921;-79
2022/01/05 10:54:08;;;;;;;;;;;3.10;99.90;;;;;;5054579;28;19909;-79
2022/01/05 10:56:34;;;;;;;;;;;3.20;99.90;;;;;;5054615;28;19908;-79
2022/01/05 10:59:00;;;;;;;;;;;3.10;99.90;;;;;;5052589;28;19916;-79
2022/01/05 11:01:29;;;;;;;;;;;3.00;99.90;;;;;;5052563;28;20364;-81
2022/01/05 11:03:54;;;;;;;;;;;3.00;99.90;;;;;;5052613;28;19908;-80
2022/01/05 11:06:20;;;;;;;;;;;3.00;99.90;;;;;;5053828;28;20279;-78
2022/01/05 11:08:45;;;;;;;;;;;3.20;99.90;;;;;;5067930;28;19919;-80
2022/01/05 11:11:30;;;;;;;;;;;3.10;99.90;;;;;;5053144;28;19990;-80
2022/01/05 11:13:55;;;;;;;;;;;3.00;99.90;;;;;;5051899;28;19927;-80
2022/01/05 11:16:25;;;;;;;;;;;3.00;99.90;;;;;;5051196;28;20306;-79
2022/01/05 11:18:50;;;;;;;;;;;2.80;99.90;;;;;;5052042;28;19962;-78
2022/01/05 11:21:18;;;;;;;;;;;3.20;99.90;;;;;;5067895;28;19913;-80
2022/01/05 11:23:44;;;;;;;;;;;3.10;99.90;;;;;;5052167;28;19913;-79
2022/01/05 11:26:09;;;;;;;;;;;3.00;99.90;;;;;;5067380;28;19935;-80
2022/01/05 11:28:35;;;;;;;;;;;3.00;99.90;;;;;;5051777;28;19913;-80
2022/01/05 11:31:01;;;;;;;;;;;3.00;99.90;;;;;;5053556;28;19990;-79
2022/01/05 11:33:27;;;;;;;;;;;2.70;99.90;;;;;;5051788;28;19936;-80
2022/01/05 11:35:53;;;;;;;;;;;2.70;99.90;;;;;;5052657;28;19909;-79
2022/01/05 11:38:19;;;;;;;;;;;3.00;99.90;;;;;;5050995;28;19909;-78
2022/01/05 11:40:47;;;;;;;;;;;2.70;99.90;;;;;;5050420;28;19964;-80
2022/01/05 11:43:15;;;;;;;;;;;3.10;99.90;;;;;;5053386;28;20364;-80
2022/01/05 11:45:46;;;;;;;;;;;3.00;99.90;;;;;;5051708;28;19944;-80
2022/01/05 11:48:29;;;;;;;;;;;3.00;99.90;;;;;;5050341;28;20344;-80
2022/01/05 11:50:59;;;;;;;;;;;3.00;99.90;;;;;;5054843;28;20275;-81
2022/01/05 11:53:33;;;;;;;;;;;2.90;99.90;;;;;;5073338;28;20418;-79
2022/01/05 11:56:22;;;;;;;;;;;3.00;99.90;;;;;;5075200;28;19915;-81
2022/01/05 11:58:51;;;;;;;;;;;3.10;99.90;;;;;;5072992;28;19966;-83
2022/01/05 12:01:17;;;;;;;;;;;3.00;99.90;;;;;;5072907;28;19912;-80
2022/01/05 12:03:52;;;;;;;;;;;3.10;99.90;;;;;;5088261;28;20381;-81
2022/01/05 12:06:18;;;;;;;;;;;3.20;99.90;;;;;;5086540;28;19915;-83
2022/01/05 12:08:48;;;;;;;;;;;3.00;99.90;;;;;;5087477;28;19908;-81
2022/01/05 12:11:28;;;;;;;;;;;3.00;99.90;;;;;;5085469;28;19916;-81
2022/01/05 12:13:53;;;;;;;;;;;2.90;99.90;;;;;;5053579;28;20374;-81
2022/01/05 12:16:19;;;;;;;;;;;3.00;99.90;;;;;;5071808;28;19930;-82
2022/01/05 12:19:01;;;;;;;;;;;2.80;99.90;;;;;;5072525;28;20364;-82
2022/01/05 12:21:49;;;;;;;;;;;2.60;99.90;;;;;;5072291;28;20000;-81
2022/01/05 12:24:15;;;;;;;;;;;2.80;99.90;;;;;;5051037;28;19913;-82
2022/01/05 12:26:43;;;;;;;;;;;2.70;99.90;;;;;;5070644;28;19912;-81
2022/01/05 12:29:09;;;;;;;;;;;2.80;99.90;;;;;;5076478;28;19965;-82
2022/01/05 12:31:47;;;;;;;;;;;2.80;99.90;;;;;;5056838;28;19916;-81
2022/01/05 12:34:13;;;;;;;;;;;2.80;99.90;;;;;;5075399;28;19915;-82
2022/01/05 12:36:39;;;;;;;;;;;2.70;99.90;;;;;;5075359;28;19908;-81
2022/01/05 12:39:05;;;;;;;;;;;2.70;99.90;;;;;;5074011;28;20382;-81
2022/01/05 12:41:37;;;;;;;;;;;2.70;99.90;;;;;;5076568;28;19916;-82
2022/01/05 12:44:06;;;;;;;;;;;2.70;99.90;;;;;;5075263;28;20317;-81
2022/01/05 12:46:32;;;;;;;;;;;2.70;99.90;;;;;;5059059;28;19915;-81
2022/01/05 12:48:59;;;;;;;;;;;2.60;99.90;;;;;;5071335;28;19966;-82
2022/01/05 12:51:44;;;;;;;;;;;2.70;99.90;;;;;;5074561;28;19916;-80
2022/01/05 12:54:19;;;;;;;;;;;2.80;99.90;;;;;;5055589;28;19909;-80
2022/01/05 12:56:54;;;;;;;;;;;2.90;99.90;;;;;;5071679;28;20007;-80
2022/01/05 12:59:21;;;;;;;;;;;2.90;99.90;;;;;;5073455;28;19916;-80
2022/01/05 13:01:51;;;;;;;;;;;3.00;99.90;;;;;;5056462;28;20233;-81
2022/01/05 13:04:18;;;;;;;;;;;3.00;99.90;;;;;;5073882;28;20031;-80
2022/01/05 13:06:45;;;;;;;;;;;2.80;99.90;;;;;;5056760;28;20007;-81
2022/01/05 13:09:12;;;;;;;;;;;2.70;99.90;;;;;;5076561;28;19909;-80
2022/01/05 13:11:43;;;;;;;;;;;2.80;99.90;;;;;;5076575;28;20015;-81
2022/01/05 13:14:09;;;;;;;;;;;3.20;99.90;;;;;;5074234;28;20351;-78
2022/01/05 13:16:34;;;;;;;;;;;3.30;99.90;;;;;;5042584;28;20003;-80
2022/01/05 13:19:00;;;;;;;;;;;3.20;99.90;;;;;;5071173;28;20003;-80
2022/01/05 13:21:41;;;;;;;;;;;3.20;99.90;;;;;;5072910;28;19915;-76
2022/01/05 13:24:07;;;;;;;;;;;2.90;99.90;;;;;;5071205;28;19919;-80
2022/01/05 13:26:33;;;;;;;;;;;3.20;99.90;;;;;;5073462;28;19912;-79
2022/01/05 13:29:18;;;;;;;;;;;3.00;99.90;;;;;;5073763;28;19973;-79
2022/01/05 13:31:54;;;;;;;;;;;2.90;99.90;;;;;;5072613;28;19916;-80
2022/01/05 13:34:27;;;;;;;;;;;2.90;99.90;;;;;;5074029;28;19909;-77
2022/01/05 13:36:53;;;;;;;;;;;3.00;99.90;;;;;;5073388;28;19961;-79
2022/01/05 13:39:45;;;;;;;;;;;3.00;99.90;;;;;;5072942;28;19912;-79
2022/01/05 13:42:14;;;;;;;;;;;3.10;99.90;;;;;;5072638;28;19915;-77
2022/01/05 13:44:41;;;;;;;;;;;3.00;99.90;;;;;;5071359;28;19919;-76
2022/01/05 13:47:07;;;;;;;;;;;3.20;99.90;;;;;;5055175;28;20364;-81
2022/01/05 13:49:33;;;;;;;;;;;3.10;99.90;;;;;;5072756;28;19908;-77
2022/01/05 13:52:05;;;;;;;;;;;3.10;99.90;;;;;;5054833;28;19921;-80
2022/01/05 13:54:34;;;;;;;;;;;3.20;99.90;;;;;;5088777;28;20365;-76
2022/01/05 13:57:00;;;;;;;;;;;3.40;99.90;;;;;;5073691;28;19944;-79
2022/01/05 13:59:36;;;;;;;;;;;3.20;99.90;;;;;;5089003;28;19912;-76
2022/01/05 14:02:01;;;;;;;;;;;3.10;99.90;;;;;;5073514;28;19934;-80
2022/01/05 14:04:27;;;;;;;;;;;3.10;99.90;;;;;;5055280;28;19961;-76
2022/01/05 14:06:59;;;;;;;;;;;3.20;99.90;;;;;;5073754;28;19999;-77
2022/01/05 14:09:29;;;;;;;;;;;3.30;99.90;;;;;;5073400;28;19912;-80
2022/01/05 14:11:57;;;;;;;;;;;3.30;99.90;;;;;;5073476;28;19920;-79
2022/01/05 14:14:24;;;;;;;;;;;3.20;99.90;;;;;;5070105;28;19909;-77
2022/01/05 14:16:50;;;;;;;;;;;3.10;99.90;;;;;;5073260;28;19993;-80
2022/01/05 14:19:17;;;;;;;;;;;3.00;99.90;;;;;;5073197;28;20351;-80
2022/01/05 14:21:44;;;;;;;;;;;3.00;99.90;;;;;;5072784;28;20348;-80
2022/01/05 14:24:10;;;;;;;;;;;2.90;99.90;;;;;;5072812;28;19912;-77
2022/01/05 14:26:38;;;;;;;;;;;2.80;99.90;;;;;;5068897;28;19919;-77
2022/01/05 14:29:04;;;;;;;;;;;2.70;99.90;;;;;;5066315;28;19908;-82
2022/01/05 14:31:32;;;;;;;;;;;2.70;99.90;;;;;;5050228;28;19916;-81
2022/01/05 14:33:58;;;;;;;;;;;2.70;99.90;;;;;;5067339;28;19908;-79
2022/01/05 14:36:27;;;;;;;;;;;2.70;99.90;;;;;;5084632;28;19912;-79
2022/01/05 14:38:53;;;;;;;;;;;2.80;99.90;;;;;;5072325;28;19912;-77